Time;durP1;ratioP1;P1;durP2;ratioP2;P2;SDS_P1;SDS_P2;PMS_P1;PMS_P2;Temp;Humidity;BMP_temperature;BMP_pressure;BME280_temperature;BME280_humidity;BME280_pressure;Samples;Min_cycle;Max_cycle;Signal;HPM_P1;HPM_P2
2022/12/09 00:01:20;;;;;;;107.60;28.27;;;;;;;;;;5112264;28;20039;-71
2022/12/09 00:03:46;;;;;;;114.07;29.73;;;;;;;;;;5109034;28;20279;-71
2022/12/09 00:06:15;;;;;;;300.65;41.25;;;;;;;;;;5111526;28;20462;-72
2022/12/09 00:08:40;;;;;;;;;;;;;;;;;;5113308;28;20024;-70
2022/12/09 00:11:06;;;;;;;121.25;30.05;;;;;;;;;;5113418;28;20002;-72
2022/12/09 00:13:31;;;;;;;99.13;29.33;;;;;;;;;;5112650;28;20030;-71
2022/12/09 00:15:57;;;;;;;107.40;30.92;;;;;;;;;;5111837;28;20028;-72
2022/12/09 00:18:22;;;;;;;110.47;30.45;;;;;;;;;;5110741;28;20023;-71
2022/12/09 00:20:47;;;;;;;99.78;29.60;;;;;;;;;;5107773;28;20051;-71
2022/12/09 00:23:12;;;;;;;112.03;28.60;;;;;;;;;;5112735;28;20027;-72
2022/12/09 00:25:38;;;;;;;104.30;28.83;;;;;;;;;;5113064;28;20023;-71
2022/12/09 00:28:03;;;;;;;95.53;26.90;;;;;;;;;;5110560;28;20382;-71
2022/12/09 00:30:28;;;;;;;101.18;28.15;;;;;;;;;;5112791;28;20276;-72
2022/12/09 00:32:53;;;;;;;95.20;27.30;;;;;;;;;;5111171;28;20053;-71
2022/12/09 00:35:19;;;;;;;92.97;26.70;;;;;;;;;;5112288;27;20264;-71
2022/12/09 00:37:44;;;;;;;99.27;27.03;;;;;;;;;;5112353;28;20272;-71
2022/12/09 00:40:09;;;;;;;101.53;26.33;;;;;;;;;;5110799;28;20370;-71
2022/12/09 00:42:35;;;;;;;130.13;28.90;;;;;;;;;;5110147;28;20276;-72
2022/12/09 00:45:00;;;;;;;222.13;37.37;;;;;;;;;;5109627;28;20508;-71
2022/12/09 00:47:25;;;;;;;587.47;56.23;;;;;;;;;;5109543;28;20260;-73
2022/12/09 00:49:50;;;;;;;92.03;26.30;;;;;;;;;;5111379;28;20305;-71
2022/12/09 00:52:16;;;;;;;90.60;27.17;;;;;;;;;;5109934;28;20283;-71
2022/12/09 00:54:41;;;;;;;105.53;26.87;;;;;;;;;;5112370;28;20511;-73
2022/12/09 00:57:06;;;;;;;94.33;27.90;;;;;;;;;;5110245;28;20886;-73
2022/12/09 00:59:31;;;;;;;91.80;25.70;;;;;;;;;;5112527;28;20264;-71
2022/12/09 01:01:57;;;;;;;105.90;26.43;;;;;;;;;;5111623;28;20098;-72
2022/12/09 01:04:23;;;;;;;91.80;25.85;;;;;;;;;;5111764;28;20058;-72
2022/12/09 01:06:49;;;;;;;109.32;26.23;;;;;;;;;;5107957;28;20042;-72
2022/12/09 01:09:14;;;;;;;83.30;25.60;;;;;;;;;;5110767;28;20024;-73
2022/12/09 01:11:39;;;;;;;97.83;26.27;;;;;;;;;;5109587;28;20058;-72
2022/12/09 01:14:04;;;;;;;112.85;25.10;;;;;;;;;;5111795;28;20263;-72
2022/12/09 01:16:31;;;;;;;144.37;29.13;;;;;;;;;;5107530;28;20474;-73
2022/12/09 01:18:58;;;;;;;104.88;28.05;;;;;;;;;;5110126;28;20446;-73
2022/12/09 01:21:23;;;;;;;117.07;26.77;;;;;;;;;;5110147;28;20038;-70
2022/12/09 01:23:49;;;;;;;90.85;26.90;;;;;;;;;;5106172;28;20393;-72
2022/12/09 01:26:14;;;;;;;78.33;26.30;;;;;;;;;;5111304;28;20031;-72
2022/12/09 01:28:39;;;;;;;87.80;26.07;;;;;;;;;;5111806;28;20264;-72
2022/12/09 01:31:14;;;;;;;82.07;26.05;;;;;;;;;;5107192;28;20414;-72
2022/12/09 01:33:40;;;;;;;90.22;24.55;;;;;;;;;;5111304;28;20015;-72
2022/12/09 01:36:06;;;;;;;87.15;24.58;;;;;;;;;;5111166;28;20552;-72
2022/12/09 01:38:32;;;;;;;73.18;23.85;;;;;;;;;;5111624;28;20035;-72
2022/12/09 01:40:57;;;;;;;78.47;22.50;;;;;;;;;;5108165;28;20048;-72
2022/12/09 01:43:22;;;;;;;58.77;21.93;;;;;;;;;;5110915;28;20068;-72
2022/12/09 01:45:48;;;;;;;51.77;20.77;;;;;;;;;;5111018;28;20615;-72
2022/12/09 01:48:18;;;;;;;62.08;20.55;;;;;;;;;;5107128;28;20024;-71
2022/12/09 01:50:49;;;;;;;46.33;18.95;;;;;;;;;;5109381;28;20020;-71
2022/12/09 01:53:15;;;;;;;43.53;17.27;;;;;;;;;;5111494;28;20454;-73
2022/12/09 01:55:41;;;;;;;42.38;17.15;;;;;;;;;;5110357;28;20148;-71
2022/12/09 01:58:06;;;;;;;33.25;14.88;;;;;;;;;;5109864;28;20106;-72
2022/12/09 02:00:32;;;;;;;31.73;14.68;;;;;;;;;;5110184;28;20037;-71
2022/12/09 02:02:58;;;;;;;31.48;14.18;;;;;;;;;;5107262;28;20034;-71
2022/12/09 02:05:24;;;;;;;28.35;13.60;;;;;;;;;;5109326;28;20701;-71
2022/12/09 02:07:49;;;;;;;30.48;13.75;;;;;;;;;;5111055;28;20031;-71
2022/12/09 02:10:16;;;;;;;33.08;14.32;;;;;;;;;;5109209;28;20466;-73
2022/12/09 02:12:47;;;;;;;33.50;14.05;;;;;;;;;;5109137;28;20031;-72
2022/12/09 02:15:16;;;;;;;28.17;14.07;;;;;;;;;;5108312;28;20046;-72
2022/12/09 02:17:45;;;;;;;30.93;14.73;;;;;;;;;;5110970;28;20023;-72
2022/12/09 02:20:17;;;;;;;35.60;14.07;;;;;;;;;;5107079;28;20035;-72
2022/12/09 02:22:47;;;;;;;27.15;14.15;;;;;;;;;;5108942;28;20035;-71
2022/12/09 02:25:16;;;;;;;29.42;13.60;;;;;;;;;;5106249;28;20069;-71
2022/12/09 02:27:49;;;;;;;30.85;14.55;;;;;;;;;;5110392;28;20027;-72
2022/12/09 02:30:18;;;;;;;31.08;15.45;;;;;;;;;;5109178;28;20020;-71
2022/12/09 02:32:57;;;;;;;29.45;13.73;;;;;;;;;;5107808;28;20052;-71
2022/12/09 02:35:34;;;;;;;28.77;14.10;;;;;;;;;;5107898;28;20578;-71
2022/12/09 02:38:09;;;;;;;29.33;14.00;;;;;;;;;;5107391;28;20481;-72
2022/12/09 02:40:37;;;;;;;29.42;13.82;;;;;;;;;;5109380;28;20126;-72
2022/12/09 02:43:05;;;;;;;34.53;14.05;;;;;;;;;;5107828;28;20023;-72
2022/12/09 02:45:30;;;;;;;30.10;14.07;;;;;;;;;;5108475;28;20431;-72
2022/12/09 02:47:57;;;;;;;29.75;14.93;;;;;;;;;;5109938;28;20024;-72
2022/12/09 02:50:25;;;;;;;31.80;15.15;;;;;;;;;;5107459;28;20402;-70
2022/12/09 02:52:52;;;;;;;31.05;15.35;;;;;;;;;;5106758;28;20032;-72
2022/12/09 02:55:18;;;;;;;31.40;15.98;;;;;;;;;;5105672;28;20520;-71
2022/12/09 02:57:43;;;;;;;34.53;15.05;;;;;;;;;;5109566;28;20473;-71
2022/12/09 03:00:12;;;;;;;36.72;16.05;;;;;;;;;;5108591;28;20045;-72
2022/12/09 03:02:39;;;;;;;35.33;15.48;;;;;;;;;;5103278;28;20485;-70
2022/12/09 03:05:09;;;;;;;39.85;15.85;;;;;;;;;;5109222;28;20024;-72
2022/12/09 03:07:34;;;;;;;33.60;16.70;;;;;;;;;;5108585;28;20030;-71
2022/12/09 03:10:07;;;;;;;34.63;16.23;;;;;;;;;;5121231;28;20389;-71
2022/12/09 03:12:33;;;;;;;37.45;16.67;;;;;;;;;;5105628;28;20373;-71
2022/12/09 03:14:59;;;;;;;33.35;16.85;;;;;;;;;;5107850;28;20023;-71
2022/12/09 03:17:33;;;;;;;39.40;17.63;;;;;;;;;;5105763;28;20024;-70
2022/12/09 03:20:18;;;;;;;37.28;18.15;;;;;;;;;;5124597;28;20066;-72
2022/12/09 03:22:44;;;;;;;34.22;17.35;;;;;;;;;;5107849;28;20116;-71
2022/12/09 03:25:16;;;;;;;34.22;17.58;;;;;;;;;;5110025;28;20788;-72
2022/12/09 03:27:53;;;;;;;36.25;17.48;;;;;;;;;;5107027;28;20032;-72
2022/12/09 03:30:18;;;;;;;33.60;16.75;;;;;;;;;;5104129;28;20023;-72
2022/12/09 03:32:45;;;;;;;36.72;17.58;;;;;;;;;;5106279;28;20020;-72
2022/12/09 03:35:13;;;;;;;37.33;18.55;;;;;;;;;;5108403;28;20442;-72
2022/12/09 03:37:39;;;;;;;31.50;16.50;;;;;;;;;;5112727;28;20055;-72
2022/12/09 03:40:06;;;;;;;32.72;16.20;;;;;;;;;;5111970;28;20089;-71
2022/12/09 03:42:38;;;;;;;33.45;16.80;;;;;;;;;;5106528;28;20035;-72
2022/12/09 03:45:06;;;;;;;31.50;16.45;;;;;;;;;;5110534;28;20582;-72
2022/12/09 03:47:31;;;;;;;28.77;15.23;;;;;;;;;;5107220;28;20492;-72
2022/12/09 03:49:57;;;;;;;32.85;16.60;;;;;;;;;;5112413;28;20024;-71
2022/12/09 03:52:25;;;;;;;29.37;15.90;;;;;;;;;;5112751;28;20023;-72
2022/12/09 03:55:03;;;;;;;31.27;15.43;;;;;;;;;;5109358;28;20027;-71
2022/12/09 03:57:28;;;;;;;31.25;16.17;;;;;;;;;;5108410;28;20031;-72
2022/12/09 03:59:58;;;;;;;32.80;16.33;;;;;;;;;;5111772;28;20034;-72
2022/12/09 04:02:24;;;;;;;31.92;16.23;;;;;;;;;;5105060;28;20036;-72
2022/12/09 04:04:49;;;;;;;31.00;15.80;;;;;;;;;;5108629;28;20484;-71
2022/12/09 04:07:15;;;;;;;30.42;15.85;;;;;;;;;;5109163;28;20026;-71
2022/12/09 04:09:40;;;;;;;30.33;14.57;;;;;;;;;;5111277;28;20055;-71
2022/12/09 04:12:06;;;;;;;30.20;15.83;;;;;;;;;;5109895;28;20031;-71
2022/12/09 04:14:31;;;;;;;30.63;16.35;;;;;;;;;;5106277;28;20367;-71
2022/12/09 04:16:56;;;;;;;26.10;14.60;;;;;;;;;;5106246;28;20464;-73
2022/12/09 04:19:22;;;;;;;28.58;15.60;;;;;;;;;;5109965;27;20310;-72
2022/12/09 04:21:47;;;;;;;28.00;15.00;;;;;;;;;;5110382;28;20073;-71
2022/12/09 04:24:12;;;;;;;27.47;15.47;;;;;;;;;;5111607;28;20355;-72
2022/12/09 04:26:37;;;;;;;30.83;15.25;;;;;;;;;;5111139;28;20035;-72
2022/12/09 04:29:03;;;;;;;30.30;15.63;;;;;;;;;;5110861;28;20070;-72
2022/12/09 04:31:28;;;;;;;30.57;15.63;;;;;;;;;;5109368;28;20687;-72
2022/12/09 04:33:53;;;;;;;30.05;15.85;;;;;;;;;;5112324;28;20267;-72
2022/12/09 04:36:19;;;;;;;29.40;15.30;;;;;;;;;;5112499;28;20466;-69
2022/12/09 04:38:44;;;;;;;27.77;15.55;;;;;;;;;;5112506;28;20015;-72
2022/12/09 04:41:10;;;;;;;28.67;15.77;;;;;;;;;;5108585;28;20043;-72
2022/12/09 04:43:35;;;;;;;30.02;15.57;;;;;;;;;;5110173;28;20263;-72
2022/12/09 04:46:01;;;;;;;29.33;16.10;;;;;;;;;;5110089;28;20034;-71
2022/12/09 04:48:27;;;;;;;29.25;15.52;;;;;;;;;;5107748;28;20524;-71
2022/12/09 04:50:52;;;;;;;30.52;15.10;;;;;;;;;;5112244;28;20015;-72
2022/12/09 04:53:17;;;;;;;31.00;14.90;;;;;;;;;;5107455;28;20032;-72
2022/12/09 04:55:42;;;;;;;30.83;15.93;;;;;;;;;;5106366;28;20371;-71
2022/12/09 04:58:08;;;;;;;32.60;16.57;;;;;;;;;;5110758;28;20284;-71
2022/12/09 05:00:33;;;;;;;42.37;17.57;;;;;;;;;;5108708;28;20027;-71
2022/12/09 05:02:58;;;;;;;42.53;19.40;;;;;;;;;;5108546;28;20439;-71
2022/12/09 05:05:23;;;;;;;34.95;16.90;;;;;;;;;;5106660;28;20303;-71
2022/12/09 05:07:49;;;;;;;33.67;17.30;;;;;;;;;;5105094;28;20098;-70
2022/12/09 05:10:14;;;;;;;33.50;16.40;;;;;;;;;;5108380;28;20030;-70
2022/12/09 05:12:39;;;;;;;36.47;18.27;;;;;;;;;;5107650;28;20054;-72
2022/12/09 05:15:05;;;;;;;42.88;19.23;;;;;;;;;;5110536;28;20271;-73
2022/12/09 05:17:30;;;;;;;41.17;19.13;;;;;;;;;;5108981;28;20047;-71
2022/12/09 05:19:55;;;;;;;41.60;18.37;;;;;;;;;;5110109;28;20072;-72
2022/12/09 05:22:20;;;;;;;33.97;17.47;;;;;;;;;;5111263;28;20031;-70
2022/12/09 05:24:46;;;;;;;36.00;17.57;;;;;;;;;;5110403;28;20016;-72
2022/12/09 05:27:12;;;;;;;36.33;18.05;;;;;;;;;;5109221;28;20111;-71
2022/12/09 05:29:37;;;;;;;40.45;20.13;;;;;;;;;;5106583;28;20023;-72
2022/12/09 05:32:02;;;;;;;35.63;18.90;;;;;;;;;;5110021;28;20028;-72
2022/12/09 05:34:27;;;;;;;36.17;18.23;;;;;;;;;;5102941;28;20032;-72
2022/12/09 05:36:53;;;;;;;33.63;17.55;;;;;;;;;;5110945;28;20065;-72
2022/12/09 05:39:18;;;;;;;33.30;17.20;;;;;;;;;;5110262;28;20031;-71
2022/12/09 05:41:45;;;;;;;35.53;17.43;;;;;;;;;;5104097;28;20279;-71
2022/12/09 05:44:10;;;;;;;35.50;16.42;;;;;;;;;;5104479;28;20126;-72
2022/12/09 05:46:36;;;;;;;33.80;18.40;;;;;;;;;;5111064;28;20445;-72
2022/12/09 05:49:01;;;;;;;36.88;18.48;;;;;;;;;;5110819;28;20019;-71
2022/12/09 05:51:27;;;;;;;44.67;19.83;;;;;;;;;;5109349;28;20019;-70
2022/12/09 05:53:53;;;;;;;47.50;19.52;;;;;;;;;;5109198;28;20047;-70
2022/12/09 05:56:19;;;;;;;39.05;19.15;;;;;;;;;;5110501;28;20475;-70
2022/12/09 05:58:45;;;;;;;38.13;19.50;;;;;;;;;;5109805;28;20030;-71
2022/12/09 06:01:10;;;;;;;43.10;22.00;;;;;;;;;;5110991;28;20035;-68
2022/12/09 06:03:35;;;;;;;49.22;23.70;;;;;;;;;;5110140;28;20020;-68
2022/12/09 06:06:14;;;;;;;50.03;23.75;;;;;;;;;;5107781;28;20030;-70
2022/12/09 06:08:40;;;;;;;44.15;22.05;;;;;;;;;;5108644;28;20388;-70
2022/12/09 06:11:08;;;;;;;46.47;22.85;;;;;;;;;;5110513;28;20027;-69
2022/12/09 06:13:33;;;;;;;62.05;27.92;;;;;;;;;;5109159;28;21251;-69
2022/12/09 06:16:02;;;;;;;70.37;30.23;;;;;;;;;;5106808;28;20031;-72
2022/12/09 06:18:28;;;;;;;69.10;31.40;;;;;;;;;;5108270;28;20023;-71
2022/12/09 06:20:53;;;;;;;69.90;29.27;;;;;;;;;;5110726;28;20030;-72
2022/12/09 06:23:18;;;;;;;53.05;23.92;;;;;;;;;;5109352;28;20282;-72
2022/12/09 06:25:44;;;;;;;45.17;22.47;;;;;;;;;;5109529;28;20038;-71
2022/12/09 06:28:10;;;;;;;37.85;19.60;;;;;;;;;;5106761;28;20443;-71
2022/12/09 06:30:35;;;;;;;36.97;19.93;;;;;;;;;;5109443;28;20019;-72
2022/12/09 06:33:00;;;;;;;42.90;19.17;;;;;;;;;;5108516;28;20264;-71
2022/12/09 06:35:25;;;;;;;38.60;19.00;;;;;;;;;;5108531;28;20023;-73
2022/12/09 06:37:52;;;;;;;40.20;18.33;;;;;;;;;;5105843;28;20036;-71
2022/12/09 06:40:17;;;;;;;38.80;19.30;;;;;;;;;;5105097;28;20124;-71
2022/12/09 06:42:42;;;;;;;35.72;18.75;;;;;;;;;;5106634;28;20485;-72
2022/12/09 06:45:08;;;;;;;39.73;19.77;;;;;;;;;;5109875;28;20049;-72
2022/12/09 06:47:33;;;;;;;43.88;20.67;;;;;;;;;;5108725;28;20279;-72
2022/12/09 06:50:00;;;;;;;44.50;20.73;;;;;;;;;;5109939;28;20027;-71
2022/12/09 06:52:26;;;;;;;42.65;20.70;;;;;;;;;;5108071;28;20271;-71
2022/12/09 06:54:51;;;;;;;42.03;21.23;;;;;;;;;;5104785;28;20020;-71
2022/12/09 06:57:16;;;;;;;52.23;23.43;;;;;;;;;;5108915;28;20111;-71
2022/12/09 06:59:41;;;;;;;45.03;20.57;;;;;;;;;;5109399;28;20279;-69
2022/12/09 07:02:08;;;;;;;39.90;20.07;;;;;;;;;;5091291;28;20032;-71
2022/12/09 07:04:33;;;;;;;41.58;19.50;;;;;;;;;;5109241;28;20263;-72
2022/12/09 07:06:59;;;;;;;36.40;18.48;;;;;;;;;;5105918;28;20172;-72
2022/12/09 07:09:24;;;;;;;34.83;18.57;;;;;;;;;;5108230;28;20474;-71
2022/12/09 07:11:50;;;;;;;40.23;18.17;;;;;;;;;;5111078;28;20275;-70
2022/12/09 07:14:17;;;;;;;34.97;17.83;;;;;;;;;;5111084;28;20036;-70
2022/12/09 07:16:42;;;;;;;34.75;18.65;;;;;;;;;;5114261;28;20046;-69
2022/12/09 07:19:15;;;;;;;37.63;18.73;;;;;;;;;;5112255;28;20052;-68
2022/12/09 07:21:40;;;;;;;38.67;19.35;;;;;;;;;;5107312;28;20283;-71
2022/12/09 07:24:05;;;;;;;42.07;19.30;;;;;;;;;;5113912;28;20019;-69
2022/12/09 07:26:31;;;;;;;40.15;19.73;;;;;;;;;;5113633;28;20072;-69
2022/12/09 07:28:56;;;;;;;40.20;20.10;;;;;;;;;;5114036;28;20027;-70
2022/12/09 07:31:24;;;;;;;39.70;18.75;;;;;;;;;;5110703;28;20569;-68
2022/12/09 07:33:49;;;;;;;34.30;18.05;;;;;;;;;;5113691;28;20023;-70
2022/12/09 07:36:15;;;;;;;36.03;19.27;;;;;;;;;;5113853;27;20619;-71
2022/12/09 07:38:40;;;;;;;39.85;20.55;;;;;;;;;;5112546;28;20035;-71
2022/12/09 07:41:06;;;;;;;40.65;19.90;;;;;;;;;;5112042;28;20146;-70
2022/12/09 07:43:35;;;;;;;38.83;18.67;;;;;;;;;;5106090;28;20099;-71
2022/12/09 07:46:04;;;;;;;38.55;19.90;;;;;;;;;;5112789;28;20533;-70
2022/12/09 07:48:29;;;;;;;37.50;19.02;;;;;;;;;;5112407;28;20042;-70
2022/12/09 07:50:58;;;;;;;38.73;18.80;;;;;;;;;;5111748;28;20035;-70
2022/12/09 07:53:23;;;;;;;35.90;19.00;;;;;;;;;;5104577;28;20774;-70
2022/12/09 07:55:48;;;;;;;37.40;18.83;;;;;;;;;;5109846;28;20311;-70
2022/12/09 07:58:13;;;;;;;32.20;17.50;;;;;;;;;;5108678;28;20766;-69
2022/12/09 08:00:39;;;;;;;36.60;17.57;;;;;;;;;;5111567;28;20032;-71
2022/12/09 08:03:04;;;;;;;33.77;18.13;;;;;;;;;;5110776;28;20267;-70
2022/12/09 08:05:29;;;;;;;35.87;18.30;;;;;;;;;;5108860;28;20106;-71
2022/12/09 08:07:54;;;;;;;42.50;21.13;;;;;;;;;;5112979;28;20024;-71
2022/12/09 08:10:20;;;;;;;39.60;19.63;;;;;;;;;;5109851;28;20028;-70
2022/12/09 08:12:45;;;;;;;37.00;18.10;;;;;;;;;;5109884;28;20276;-70
2022/12/09 08:15:10;;;;;;;37.67;17.10;;;;;;;;;;5112932;28;20102;-72
2022/12/09 08:17:35;;;;;;;57.22;21.17;;;;;;;;;;5112035;28;20078;-69
2022/12/09 08:20:01;;;;;;;35.40;18.30;;;;;;;;;;5111114;28;20051;-71
2022/12/09 08:22:26;;;;;;;34.37;16.77;;;;;;;;;;5111304;28;20784;-70
2022/12/09 08:24:51;;;;;;;31.30;16.90;;;;;;;;;;5110972;28;20032;-71
2022/12/09 08:27:16;;;;;;;34.63;15.50;;;;;;;;;;5113999;27;20055;-71
2022/12/09 08:29:42;;;;;;;28.97;15.30;;;;;;;;;;5109779;28;20047;-71
2022/12/09 08:32:07;;;;;;;26.53;14.97;;;;;;;;;;5110998;28;20031;-70
2022/12/09 08:34:32;;;;;;;34.87;16.50;;;;;;;;;;5111784;28;20896;-71
2022/12/09 08:36:57;;;;;;;31.87;16.50;;;;;;;;;;5111351;28;20031;-71
2022/12/09 08:39:22;;;;;;;32.17;16.53;;;;;;;;;;5112485;28;20022;-70
2022/12/09 08:41:48;;;;;;;27.37;15.47;;;;;;;;;;5109269;28;20039;-70
2022/12/09 08:44:13;;;;;;;26.43;14.13;;;;;;;;;;5107427;28;20110;-71
2022/12/09 08:46:39;;;;;;;25.37;14.43;;;;;;;;;;5110752;28;20054;-70
2022/12/09 08:49:09;;;;;;;25.90;13.90;;;;;;;;;;5108694;28;20617;-71
2022/12/09 08:51:34;;;;;;;28.35;14.45;;;;;;;;;;5109211;28;20085;-70
2022/12/09 08:54:00;;;;;;;26.92;14.80;;;;;;;;;;5107978;28;20031;-71
2022/12/09 08:56:25;;;;;;;27.55;14.38;;;;;;;;;;5110050;28;20031;-70
2022/12/09 08:58:51;;;;;;;29.85;14.95;;;;;;;;;;5109276;28;20066;-71
2022/12/09 09:01:17;;;;;;;29.13;15.73;;;;;;;;;;5112266;28;20044;-71
2022/12/09 09:03:42;;;;;;;28.13;15.30;;;;;;;;;;5121335;27;20044;-70
2022/12/09 09:06:08;;;;;;;30.73;16.00;;;;;;;;;;5110753;28;20045;-70
2022/12/09 09:08:33;;;;;;;25.63;15.50;;;;;;;;;;5110889;28;20122;-71
2022/12/09 09:10:58;;;;;;;26.80;14.90;;;;;;;;;;5111028;28;20329;-70
2022/12/09 09:13:24;;;;;;;30.67;15.23;;;;;;;;;;5110534;28;20268;-70
2022/12/09 09:15:49;;;;;;;26.55;15.60;;;;;;;;;;5107791;28;20324;-70
2022/12/09 09:18:14;;;;;;;27.40;14.90;;;;;;;;;;5108939;28;20031;-70
2022/12/09 09:20:46;;;;;;;25.97;14.27;;;;;;;;;;5107237;28;20284;-70
2022/12/09 09:23:12;;;;;;;26.98;14.00;;;;;;;;;;5111467;28;20268;-70
2022/12/09 09:25:41;;;;;;;26.70;14.20;;;;;;;;;;5110248;28;20427;-70
2022/12/09 09:28:06;;;;;;;24.67;13.65;;;;;;;;;;5107604;28;20615;-70
2022/12/09 09:30:31;;;;;;;23.73;12.57;;;;;;;;;;5110124;28;20035;-71
2022/12/09 09:32:56;;;;;;;21.37;12.90;;;;;;;;;;5111429;28;20268;-69
2022/12/09 09:35:22;;;;;;;23.03;12.53;;;;;;;;;;5110577;28;20027;-70
2022/12/09 09:37:49;;;;;;;24.63;12.48;;;;;;;;;;5111505;28;20118;-71
2022/12/09 09:40:14;;;;;;;21.73;12.15;;;;;;;;;;5110328;28;20054;-70
2022/12/09 09:42:44;;;;;;;23.70;12.23;;;;;;;;;;5110975;28;20028;-71
2022/12/09 09:45:09;;;;;;;;;;;;;;;;;;5110772;28;20067;-71
2022/12/09 09:47:57;;;;;;;22.70;10.68;;;;;;;;;;5108671;27;19937;-70
2022/12/09 09:50:37;;;;;;;19.85;9.10;;;;;;;;;;5097137;28;20040;-68
2022/12/09 09:53:21;;;;;;;16.02;8.43;;;;;;;;;;5109788;28;20023;-69
2022/12/09 09:55:50;;;;;;;14.57;7.70;;;;;;;;;;5122198;27;20042;-69
2022/12/09 09:58:16;;;;;;;15.23;8.30;;;;;;;;;;5109991;28;20047;-71
2022/12/09 10:01:02;;;;;;;19.17;8.60;;;;;;;;;;5110748;28;20019;-72
2022/12/09 10:03:34;;;;;;;15.50;7.97;;;;;;;;;;5108103;28;20042;-70
2022/12/09 10:06:03;;;;;;;15.57;7.25;;;;;;;;;;5108982;28;20102;-69
2022/12/09 10:08:46;;;;;;;17.38;8.05;;;;;;;;;;5104864;28;20034;-69
2022/12/09 10:11:27;;;;;;;15.40;6.60;;;;;;;;;;5107305;28;20111;-69
2022/12/09 10:13:55;;;;;;;13.10;6.80;;;;;;;;;;5108476;28;20453;-70
2022/12/09 10:16:20;;;;;;;14.13;6.85;;;;;;;;;;5106967;28;20092;-69
2022/12/09 10:18:58;;;;;;;14.47;7.13;;;;;;;;;;5110011;28;20474;-70
2022/12/09 10:21:26;;;;;;;13.65;6.53;;;;;;;;;;5107652;28;20032;-70
2022/12/09 10:23:53;;;;;;;15.35;6.88;;;;;;;;;;5109735;28;20034;-71
2022/12/09 10:26:21;;;;;;;9.38;5.97;;;;;;;;;;5107157;28;20015;-71
2022/12/09 10:28:48;;;;;;;10.10;4.95;;;;;;;;;;5107229;28;20550;-71
2022/12/09 10:31:13;;;;;;;7.75;5.15;;;;;;;;;;5105699;28;20112;-71
2022/12/09 10:33:39;;;;;;;8.18;4.72;;;;;;;;;;5108698;28;20032;-71
2022/12/09 10:36:06;;;;;;;10.50;4.15;;;;;;;;;;5109208;28;20031;-71
2022/12/09 10:38:34;;;;;;;8.00;4.05;;;;;;;;;;5108259;28;20420;-70
2022/12/09 10:41:03;;;;;;;12.65;5.10;;;;;;;;;;5105768;28;20047;-71
2022/12/09 10:46:12;;;;;;;9.60;4.15;;;;;;;;;;5109522;28;20366;-71
2022/12/09 10:48:51;;;;;;;16.67;4.80;;;;;;;;;;5108113;28;20035;-72
2022/12/09 10:51:19;;;;;;;8.25;4.05;;;;;;;;;;5106517;28;20016;-71
2022/12/09 10:53:55;;;;;;;5.55;3.28;;;;;;;;;;5106959;28;20366;-71
2022/12/09 10:56:25;;;;;;;13.70;4.88;;;;;;;;;;5112310;28;20038;-72
2022/12/09 10:59:19;;;;;;;13.80;3.95;;;;;;;;;;5108011;28;20051;-71
2022/12/09 11:01:49;;;;;;;6.65;4.13;;;;;;;;;;5095426;28;20032;-71
2022/12/09 11:04:20;;;;;;;8.25;3.72;;;;;;;;;;5108485;28;20534;-71
2022/12/09 11:06:45;;;;;;;9.25;3.63;;;;;;;;;;5106321;28;20028;-71
2022/12/09 11:09:18;;;;;;;9.30;3.83;;;;;;;;;;5107966;28;20363;-71
2022/12/09 11:11:47;;;;;;;11.60;3.60;;;;;;;;;;5109853;28;20753;-71
2022/12/09 11:14:21;;;;;;;6.43;3.80;;;;;;;;;;5110466;28;20039;-70
2022/12/09 11:16:49;;;;;;;7.63;3.88;;;;;;;;;;5105017;28;20020;-73
2022/12/09 11:19:26;;;;;;;10.02;3.78;;;;;;;;;;5109718;28;20024;-69
2022/12/09 11:22:10;;;;;;;10.23;3.85;;;;;;;;;;5105674;28;20435;-68
2022/12/09 11:24:36;;;;;;;9.38;3.15;;;;;;;;;;5108542;28;20034;-68
2022/12/09 11:27:01;;;;;;;10.40;3.70;;;;;;;;;;5106971;28;20028;-69
2022/12/09 11:29:26;;;;;;;9.53;3.90;;;;;;;;;;5107454;28;20038;-69
2022/12/09 11:31:51;;;;;;;9.48;3.80;;;;;;;;;;5109741;28;20015;-68
2022/12/09 11:34:22;;;;;;;10.65;3.83;;;;;;;;;;5107783;28;20024;-69
2022/12/09 11:36:51;;;;;;;8.93;3.30;;;;;;;;;;5110320;28;20031;-70
2022/12/09 11:39:18;;;;;;;11.50;3.70;;;;;;;;;;5107347;28;20020;-68
2022/12/09 11:44:29;;;;;;;14.32;4.07;;;;;;;;;;5109775;28;20030;-68
2022/12/09 11:47:04;;;;;;;12.30;3.70;;;;;;;;;;5106938;28;20054;-70
2022/12/09 11:49:34;;;;;;;10.23;3.20;;;;;;;;;;5108074;28;20465;-65
2022/12/09 11:52:21;;;;;;;14.10;3.58;;;;;;;;;;5112081;28;20491;-68
2022/12/09 11:54:47;;;;;;;13.38;3.67;;;;;;;;;;5108030;28;20027;-70
2022/12/09 11:57:32;;;;;;;10.38;4.07;;;;;;;;;;5111499;28;20384;-68
2022/12/09 12:00:00;;;;;;;11.43;3.72;;;;;;;;;;5112084;28;20031;-70
2022/12/09 12:02:28;;;;;;;12.77;4.30;;;;;;;;;;5112278;28;20028;-72
2022/12/09 12:05:16;;;;;;;15.93;3.67;;;;;;;;;;5112764;28;20036;-69
2022/12/09 12:07:54;;;;;;;14.20;3.88;;;;;;;;;;5010377;28;20483;-70
2022/12/09 12:10:28;;;;;;;17.27;3.80;;;;;;;;;;5030106;28;20041;-72
2022/12/09 12:12:53;;;;;;;14.00;3.53;;;;;;;;;;5029951;28;20132;-71
2022/12/09 12:15:24;;;;;;;17.25;3.60;;;;;;;;;;5030244;28;20859;-68
2022/12/09 12:17:51;;;;;;;15.02;4.05;;;;;;;;;;5013156;28;20439;-70
2022/12/09 12:20:16;;;;;;;15.95;3.50;;;;;;;;;;5030282;28;20128;-69
2022/12/09 12:23:00;;;;;;;20.33;3.80;;;;;;;;;;5027999;28;20124;-68
2022/12/09 12:25:39;;;;;;;17.10;3.78;;;;;;;;;;5028347;28;20037;-70
2022/12/09 12:28:20;;;;;;;14.45;3.60;;;;;;;;;;5011744;28;20038;-65
2022/12/09 12:30:46;;;;;;;16.30;3.78;;;;;;;;;;5028989;28;20528;-67
2022/12/09 12:33:11;;;;;;;12.37;4.03;;;;;;;;;;5030250;28;20033;-67
2022/12/09 12:35:47;;;;;;;17.10;3.60;;;;;;;;;;5029186;28;20025;-67
2022/12/09 12:38:34;;;;;;;19.50;3.92;;;;;;;;;;5008173;28;20068;-67
2022/12/09 12:41:08;;;;;;;19.67;3.90;;;;;;;;;;5025620;28;20042;-68
2022/12/09 12:46:29;;;;;;;17.15;4.05;;;;;;;;;;5111361;28;20112;-65
2022/12/09 12:49:00;;;;;;;17.45;3.92;;;;;;;;;;5109944;28;21067;-67
2022/12/09 12:51:39;;;;;;;23.10;4.82;;;;;;;;;;5109784;27;20027;-67
2022/12/09 12:54:14;;;;;;;13.17;4.37;;;;;;;;;;5110607;28;20047;-67
2022/12/09 12:56:50;;;;;;;16.13;3.95;;;;;;;;;;5105003;28;20039;-67
2022/12/09 12:59:15;;;;;;;23.35;3.90;;;;;;;;;;5111421;28;20020;-67
2022/12/09 13:01:51;;;;;;;20.77;4.23;;;;;;;;;;5108706;28;20026;-68
2022/12/09 13:04:26;;;;;;;23.15;3.95;;;;;;;;;;5110791;28;20509;-70
2022/12/09 13:07:05;;;;;;;14.93;3.92;;;;;;;;;;5109187;28;20028;-70
2022/12/09 13:09:50;;;;;;;19.00;3.80;;;;;;;;;;5111553;27;20024;-70
2022/12/09 13:12:18;;;;;;;25.48;4.10;;;;;;;;;;5109007;28;20065;-68
2022/12/09 13:14:50;;;;;;;19.98;3.97;;;;;;;;;;5123193;27;20074;-68
2022/12/09 13:17:16;;;;;;;11.68;3.97;;;;;;;11.15;nan;99662.38;5108813;28;20514;-68
2022/12/09 13:19:43;;;;;;;25.83;5.50;;;;;;;;;;5104876;28;20051;-68
2022/12/09 13:22:23;;;;;;;25.05;4.97;;;;;;;;;;5110358;28;20384;-68
2022/12/09 13:24:48;;;;;;;21.77;4.82;;;;;;;;;;5108388;28;20055;-68
2022/12/09 13:27:18;;;;;;;18.63;5.63;;;;;;;;;;5108897;28;20058;-68
2022/12/09 13:29:52;;;;;;;28.48;5.45;;;;;;;;;;5111786;28;20055;-67
2022/12/09 13:32:33;;;;;;;22.85;5.30;;;;;;;;;;5109466;28;20020;-68
2022/12/09 13:35:02;;;;;;;24.27;5.35;;;;;;;;;;5106059;28;20565;-73
2022/12/09 13:37:53;;;;;;;26.90;6.13;;;;;;;;;;5110420;28;20054;-75
2022/12/09 13:40:20;;;;;;;32.55;5.00;;;;;;;;;;5109860;28;20067;-69
2022/12/09 13:43:00;;;;;;;19.33;4.53;;;;;;;;;;5109611;28;20040;-68
2022/12/09 13:45:28;;;;;;;36.25;6.60;;;;;;;;;;5105291;28;20019;-67
2022/12/09 13:47:58;;;;;;;27.08;5.03;;;;;;;;;;5106703;28;20051;-68
2022/12/09 13:50:25;;;;;;;30.42;6.00;;;;;;;;;;5109131;28;20031;-69
2022/12/09 13:52:52;;;;;;;30.77;5.90;;;;;;;;;;5109753;28;20039;-70
2022/12/09 13:55:25;;;;;;;27.55;4.97;;;;;;;;;;5103905;28;20148;-76
2022/12/09 13:58:11;;;;;;;21.75;4.95;;;;;;;;;;5108152;28;20181;-75
2022/12/09 14:00:37;;;;;;;27.65;6.10;;;;;;;;;;5096290;28;20401;-76
2022/12/09 14:03:10;;;;;;;30.83;6.43;;;;;;;;;;5109757;28;20031;-69
2022/12/09 14:05:36;;;;;;;29.30;7.53;;;;;;;;;;5107650;27;20023;-70
2022/12/09 14:08:18;;;;;;;22.73;6.32;;;;;;;;;;5107367;28;20023;-69
2022/12/09 14:10:48;;;;;;;30.63;5.50;;;;;;;;;;5108476;28;20026;-69
2022/12/09 14:13:34;;;;;;;27.48;5.75;;;;;;;;;;5109237;28;20695;-70
2022/12/09 14:16:11;;;;;;;28.65;5.93;;;;;;;;;;5105356;28;20762;-73
2022/12/09 14:18:36;;;;;;;31.75;6.32;;;;;;;;;;5107013;28;20019;-71
2022/12/09 14:21:17;;;;;;;27.63;5.28;;;;;;;;;;5108794;28;20026;-70
2022/12/09 14:24:01;;;;;;;25.98;5.00;;;;;;;;;;5109716;28;20031;-72
2022/12/09 14:26:52;;;;;;;26.77;5.60;;;;;;;;;;5101732;28;20024;-71
2022/12/09 14:29:36;;;;;;;23.52;5.32;;;;;;;;;;5085408;28;20040;-70
2022/12/09 14:32:02;;;;;;;24.67;5.05;;;;;;;;;;5104632;28;20030;-72
2022/12/09 14:34:35;;;;;;;24.88;5.40;;;;;;;;;;5108873;28;20106;-72
2022/12/09 14:37:09;;;;;;;27.55;5.45;;;;;;;;;;5107470;28;20035;-71